Station info - map view · info · telemetry · weather · raw · status · beacons · messages · bulletins · browse · moving · my account
Callsign, ship name or locator: Clear       
It is possible to search using wildcards (*?) after a prefix. Example: OH*
APRS station N4QAD-9 - show graphs
Map loading...
Comment: 146.835MHz C156 -060 or APRS voice Alert
Mic-E message: En route
Location: 40°21.05' N 84°22.00' W - locator EN70TI54XE - show map - static map
0.4 miles East bearing 96° from Fort Loramie, Shelby County, Ohio, United States [?]
3.0 miles South bearing 170° from Minster, Auglaize County, Ohio, United States
67.0 miles Southeast bearing 143° from Fort Wayne, Allen County, Indiana, United States
77.0 miles West bearing 291° from Columbus, Franklin County, Ohio, United States
Last position: 2019-01-17 17:25:57 EST (7h30m ago)
2019-01-17 17:25:57 EST local time at Fort Loramie, United States [?]
Altitude: 912 ft
Course: 173°
Speed: 5 MPH
Device: Yaesu: FTM-400DR (rig)
Last path: N4QAD-9>TP2Q0U via WIDE1-1,WIDE2-1,qAR,N4QAD-1 (good)
Positions stored: 12864
Packet rate: 111 seconds between packets on average during 1106 seconds.
Other SSIDs: N4QAD-1 N4QAD-10 N4QAD-7
Stations near current position of N4QAD-9 - show more
callsign distance last heard - EST      callsign distance last heard - EST
N4QAD-10.7 miles 199°2019-01-18 00:51:41 DW83883.2 miles 347°2019-01-18 00:55:40
KC6NLX-1011.0 miles 74°2019-01-09 15:21:37 N8XM-711.1 miles 113°2018-12-31 09:25:44
KC6NLX-1311.4 miles 114°2019-01-17 23:25:11 N8XM11.5 miles 105°2019-01-10 08:27:11
NE8SC-911.6 miles 107°2019-01-05 18:00:13 K8EMA-411.7 miles 116°2019-01-18 00:36:12
443.200-S12.5 miles 104°2019-01-18 00:52:02 KD9AKC12.8 miles 313°2019-01-03 13:47:11
FW209813.8 miles 353°2019-01-18 00:53:17 EW477614.3 miles 261°2019-01-18 00:53:31
K8EEP-914.7 miles 95°2019-01-17 17:02:45 KD8EVI-1015.5 miles 150°2019-01-18 00:48:40
WB8UPO B15.7 miles 155°2019-01-18 00:49:20 WB8UPO-B15.7 miles 155°2019-01-18 00:49:30
KD8YFZ-B15.8 miles 78°2019-01-18 00:43:25 KD8YFZ B15.8 miles 78°2019-01-18 00:43:40
146.835-S15.9 miles 76°2019-01-18 00:54:02 KC8UKB B17.1 miles 31°2019-01-18 00:54:14
Stations which heard N4QAD-9 directly on radio –
callsign pkts first heard - EST last heard longest (tx => rx) longest at - EST
KY4WC-10 2 2019-01-01 12:56:07 2019-01-01 13:05:45 EM78SB > EM78PB 15.8 miles 272° 2019-01-01 12:56:07
K8SCH-10 4 2019-01-01 13:52:19 2019-01-01 14:08:38 EM78QU > EM79RA 11.3 miles 17° 2019-01-01 13:52:19
KA0AZS 2 2019-01-01 14:59:21 2019-01-01 15:02:13 EM79VR > EM79VQ 1.8 miles 161° 2019-01-01 15:02:13
WA8ZWJ-1 2 2019-01-01 15:21:48 2019-01-01 15:24:07 EM79VX > EM79TV 9.1 miles 239° 2019-01-01 15:21:48
W8BLV 10 2019-01-01 14:40:38 2019-01-01 15:08:37 EM79VS > EM79TM 21.0 miles 206° 2019-01-01 15:08:37
K4KJQ-10 4 2019-01-01 12:57:42 2019-01-01 13:07:31 EM78RF > EM78SC 10.1 miles 164° 2019-01-01 13:07:31
KE4OTZ-3 7 2019-01-01 09:10:47 2019-01-01 10:11:22 EM85IX > EM85BP 41.1 miles 238° 2019-01-01 09:10:47
KI6SZ-2 22 2019-01-01 14:40:39 2019-01-16 11:46:38 EN70UG > EM79WT 34.6 miles 159° 2019-01-12 14:32:18
N8OZB 63 2019-01-01 15:45:18 2019-01-17 17:08:44 EN70TI > EN80BJ 28.5 miles 80° 2019-01-09 18:06:00
W8MRG-3 6 2019-01-01 14:10:21 2019-01-01 14:29:08 EM79SG > EM79SD 9.3 miles 187° 2019-01-01 14:29:08
KG4LKY-2 3 2019-01-01 11:30:59 2019-01-01 11:45:21 EM77UH > EM87BF 25.5 miles 104° 2019-01-01 11:45:21
W8VFR-1 2 2019-01-01 14:33:44 2019-01-01 14:47:25 EM79TI > EM79PO 23.3 miles 323° 2019-01-01 14:33:44
W8VFR-5 2 2019-01-01 14:42:53 2019-01-01 14:45:07 EM79UK > EM79OM 23.3 miles 281° 2019-01-01 14:42:53
W8VFR-3 7 2019-01-01 14:42:54 2019-01-01 15:08:39 EM79VS > EM79TP 14.1 miles 220° 2019-01-01 15:08:39
W8VFR-4 2 2019-01-01 14:54:36 2019-01-01 15:01:39 EM79VO > EM79TR 13.0 miles 321° 2019-01-01 14:54:36
W8VFR-11 1 2019-01-01 14:05:02 2019-01-01 14:05:02 EM79QA > EM79NO 42.0 miles 338° 2019-01-01 14:05:02
KA8ZGE-10 2 2019-01-12 11:17:59 2019-01-12 15:02:51 EN70TI > EN70WS 31.7 miles 20° 2019-01-12 15:02:51
KC4MJN-2 1 2019-01-01 10:30:31 2019-01-01 10:30:31 EM76UJ > EM76MK 37.4 miles 273° 2019-01-01 10:30:31
KD8LXB-10 2 2019-01-01 14:54:36 2019-01-01 14:56:59 EM79VO > EM79QR 21.2 miles 299° 2019-01-01 14:54:36
KT4LH-10 5 2019-01-01 12:48:59 2019-01-01 13:02:14 EM78RD > EM78SB 7.5 miles 144° 2019-01-01 13:02:14
W8VFR-8 19 2019-01-01 15:24:44 2019-01-17 17:09:03 EN70VH > EM79QW 36.1 miles 221° 2019-01-07 07:29:34
KD8QFM-3 2 2019-01-01 15:14:15 2019-01-01 15:16:34 EM79VU > EM79VV 2.0 miles 347° 2019-01-01 15:14:15
K8EMA-4 241 2019-01-01 15:33:49 2019-01-17 17:17:17 EN70TI > EN70WG 11.8 miles 116° 2019-01-07 20:26:13
W8VFR-6 4 2019-01-01 16:14:06 2019-01-14 17:51:51 EN70TI > EN70QD 20.9 miles 224° 2019-01-12 07:56:49
KE0JMK-2 5 2019-01-01 15:01:36 2019-01-01 15:09:28 EM79VT > EM79WR 6.6 miles 156° 2019-01-01 15:09:28
K4KPN-15 8 2019-01-01 13:27:05 2019-01-01 13:54:39 EM78QV > EM78RP 16.2 miles 170° 2019-01-01 13:54:39
K8EEP-9 2 2019-01-12 11:40:06 2019-01-12 11:47:43 EN70VG > EN70WG 1.4 miles 122° 2019-01-12 11:47:43
N4QAD-1 370 2019-01-01 15:42:18 2019-01-17 17:25:57 EN70WG > EN70TI 11.7 miles 292° 2019-01-12 14:15:10
W8NJR-1 2 2019-01-01 15:24:45 2019-01-01 15:31:32 EN70VC > EN70UA 9.3 miles 214° 2019-01-01 15:31:32
KD8EVI-10 32 2019-01-01 15:27:00 2019-01-17 12:53:19 EN70TI > EN70VD 15.4 miles 150° 2019-01-07 20:25:40
KW4BV-10 7 2019-01-01 09:40:27 2019-01-01 09:54:47 EM86AA > EM86CA 8.7 miles 82° 2019-01-01 09:54:47
NN4BC-15 1 2018-12-31 19:31:40 2018-12-31 19:31:40 EM85RN > EM85QO 7.0 miles 303° 2018-12-31 19:31:40
N4VX-3 5 2018-12-31 19:34:58 2018-12-31 19:57:21 EM85RN > EM85RO 3.6 miles 58° 2018-12-31 19:57:21
KI4WEF-10 1 2019-01-01 13:30:28 2019-01-01 13:30:28 EM78QN > EM78RM 2.7 miles 137° 2019-01-01 13:30:28

Only position packets which were originated by the station are shown here. The range statistics show some extra long hops, because some digipeaters do not correctly add themselves to the digipeater path. Please check the raw packets.
About this site
This page shows real-time information collected from the Automatic Position Reporting System Internet network (APRS-IS). APRS is used by amateur (ham) radio operators to transmit real-time position information, weather data, telemetry and messages over the radio. A vehicle equipped with a GPS receiver, a VHF transmitter or HF transceiver and a small computer device called a tracker transmits it's location, speed and course in a small data packet, which is then received by a nearby iGate receiving site which forwards the packet on the Internet. Systems connected to the Internet can send information on the APRS-IS without a radio transmitter, or collect and display information transmitted anywhere in the world.
FAQ · Blog · Discussion group · Linking to aprs.fi · AIS sites · Service status · Database statistics · Advertising on aprs.fi · Technical details · API · Change log · Planned changes · Credits and thanks · Terms Of Service · iPhone/iPad APRS